sensor_id;sensor_type;location;lat;lon;timestamp;pressure;altitude;pressure_sealevel;temperature;humidity
11648;BME280;5880;52.342;9.662;2023-05-23T00:01:40;100713.91;;;22.48;52.40
11648;BME280;5880;52.342;9.662;2023-05-23T00:04:07;100720.69;;;22.55;52.55
11648;BME280;5880;52.342;9.662;2023-05-23T00:06:33;100716.25;;;22.54;52.60
11648;BME280;5880;52.342;9.662;2023-05-23T00:09:01;100721.22;;;22.58;52.60
11648;BME280;5880;52.342;9.662;2023-05-23T00:11:27;100716.25;;;22.54;52.64
11648;BME280;5880;52.342;9.662;2023-05-23T00:13:54;100712.53;;;22.59;52.87
11648;BME280;5880;52.342;9.662;2023-05-23T00:16:20;100714.84;;;22.57;52.84
11648;BME280;5880;52.342;9.662;2023-05-23T00:18:47;100718.09;;;22.59;52.84
11648;BME280;5880;52.342;9.662;2023-05-23T00:21:15;100716.75;;;22.57;52.67
11648;BME280;5880;52.342;9.662;2023-05-23T00:23:41;100726.78;;;22.58;52.80
11648;BME280;5880;52.342;9.662;2023-05-23T00:26:08;100725.13;;;22.57;52.83
11648;BME280;5880;52.342;9.662;2023-05-23T00:28:34;100719.56;;;22.57;52.80
11648;BME280;5880;52.342;9.662;2023-05-23T00:31:00;100723.50;;;22.55;52.88
11648;BME280;5880;52.342;9.662;2023-05-23T00:33:25;100712.25;;;22.47;53.00
11648;BME280;5880;52.342;9.662;2023-05-23T00:35:51;100710.59;;;22.46;52.92
11648;BME280;5880;52.342;9.662;2023-05-23T00:38:17;100725.25;;;22.51;52.96
11648;BME280;5880;52.342;9.662;2023-05-23T00:40:43;100724.41;;;22.51;52.98
11648;BME280;5880;52.342;9.662;2023-05-23T00:43:09;100716.19;;;22.46;53.01
11648;BME280;5880;52.342;9.662;2023-05-23T00:45:35;100719.47;;;22.48;52.91
11648;BME280;5880;52.342;9.662;2023-05-23T00:48:02;100713.50;;;22.41;52.90
11648;BME280;5880;52.342;9.662;2023-05-23T00:50:29;100709.16;;;22.34;53.07
11648;BME280;5880;52.342;9.662;2023-05-23T00:52:56;100722.16;;;22.39;52.97
11648;BME280;5880;52.342;9.662;2023-05-23T00:55:24;100729.47;;;22.35;52.82
11648;BME280;5880;52.342;9.662;2023-05-23T00:57:52;100716.28;;;22.27;52.79
11648;BME280;5880;52.342;9.662;2023-05-23T01:00:20;100728.53;;;22.26;52.88
11648;BME280;5880;52.342;9.662;2023-05-23T01:02:47;100726.38;;;22.23;52.83
11648;BME280;5880;52.342;9.662;2023-05-23T01:05:16;100732.25;;;22.21;52.85
11648;BME280;5880;52.342;9.662;2023-05-23T01:07:44;100725.09;;;22.15;52.76
11648;BME280;5880;52.342;9.662;2023-05-23T01:10:10;100736.53;;;22.13;52.84
11648;BME280;5880;52.342;9.662;2023-05-23T01:16:16;100735.38;;;22.01;52.60
11648;BME280;5880;52.342;9.662;2023-05-23T01:18:53;100736.81;;;21.98;52.95
11648;BME280;5880;52.342;9.662;2023-05-23T01:21:24;100743.00;;;21.95;52.87
11648;BME280;5880;52.342;9.662;2023-05-23T01:24:29;100736.91;;;21.93;52.83
11648;BME280;5880;52.342;9.662;2023-05-23T01:27:38;100739.78;;;21.88;52.58
11648;BME280;5880;52.342;9.662;2023-05-23T01:30:09;100737.41;;;21.81;52.73
11648;BME280;5880;52.342;9.662;2023-05-23T01:32:38;100734.94;;;21.80;52.78
11648;BME280;5880;52.342;9.662;2023-05-23T01:35:05;100739.97;;;21.78;52.71
11648;BME280;5880;52.342;9.662;2023-05-23T01:37:31;100738.13;;;21.73;52.75
11648;BME280;5880;52.342;9.662;2023-05-23T01:39:56;100746.75;;;21.71;52.70
11648;BME280;5880;52.342;9.662;2023-05-23T01:42:22;100755.19;;;21.66;52.92
11648;BME280;5880;52.342;9.662;2023-05-23T01:44:48;100741.03;;;21.63;52.87
11648;BME280;5880;52.342;9.662;2023-05-23T01:47:14;100750.00;;;21.60;52.44
11648;BME280;5880;52.342;9.662;2023-05-23T01:49:41;100755.34;;;21.56;52.70
11648;BME280;5880;52.342;9.662;2023-05-23T01:52:09;100757.69;;;21.49;52.58
11648;BME280;5880;52.342;9.662;2023-05-23T01:54:36;100757.19;;;21.47;52.78
11648;BME280;5880;52.342;9.662;2023-05-23T01:59:29;100756.22;;;21.33;52.66
11648;BME280;5880;52.342;9.662;2023-05-23T02:01:55;100759.88;;;21.33;52.68
11648;BME280;5880;52.342;9.662;2023-05-23T02:04:21;100758.50;;;21.31;52.65
11648;BME280;5880;52.342;9.662;2023-05-23T02:06:47;100757.75;;;21.25;52.63
11648;BME280;5880;52.342;9.662;2023-05-23T02:09:13;100757.53;;;21.21;52.52
11648;BME280;5880;52.342;9.662;2023-05-23T02:11:38;100760.91;;;21.18;52.68
11648;BME280;5880;52.342;9.662;2023-05-23T02:14:04;100753.78;;;21.12;52.58
11648;BME280;5880;52.342;9.662;2023-05-23T02:16:30;100756.59;;;21.07;52.60
11648;BME280;5880;52.342;9.662;2023-05-23T02:18:57;100757.81;;;21.01;52.67
11648;BME280;5880;52.342;9.662;2023-05-23T02:21:23;100752.91;;;20.93;52.46
11648;BME280;5880;52.342;9.662;2023-05-23T02:23:49;100751.34;;;20.86;52.64
11648;BME280;5880;52.342;9.662;2023-05-23T02:26:15;100742.50;;;20.84;52.66
11648;BME280;5880;52.342;9.662;2023-05-23T02:28:40;100752.25;;;20.82;52.72
11648;BME280;5880;52.342;9.662;2023-05-23T02:31:06;100744.88;;;20.72;52.51
11648;BME280;5880;52.342;9.662;2023-05-23T02:33:32;100756.28;;;20.71;52.79
11648;BME280;5880;52.342;9.662;2023-05-23T02:35:57;100763.78;;;20.70;52.60
11648;BME280;5880;52.342;9.662;2023-05-23T02:38:23;100760.22;;;20.64;52.74
11648;BME280;5880;52.342;9.662;2023-05-23T02:40:51;100762.47;;;20.62;52.59
11648;BME280;5880;52.342;9.662;2023-05-23T02:43:21;100759.75;;;20.57;52.75
11648;BME280;5880;52.342;9.662;2023-05-23T02:45:46;100758.97;;;20.52;52.56
11648;BME280;5880;52.342;9.662;2023-05-23T02:48:12;100767.84;;;20.54;52.83
11648;BME280;5880;52.342;9.662;2023-05-23T02:50:37;100763.75;;;20.46;52.62
11648;BME280;5880;52.342;9.662;2023-05-23T02:53:03;100766.00;;;20.44;52.59
11648;BME280;5880;52.342;9.662;2023-05-23T02:55:29;100760.22;;;20.40;52.65
11648;BME280;5880;52.342;9.662;2023-05-23T02:57:57;100776.81;;;20.45;52.57
11648;BME280;5880;52.342;9.662;2023-05-23T03:00:24;100782.41;;;20.40;52.69
11648;BME280;5880;52.342;9.662;2023-05-23T03:02:49;100776.63;;;20.37;52.76
11648;BME280;5880;52.342;9.662;2023-05-23T03:05:15;100785.19;;;20.40;52.81
11648;BME280;5880;52.342;9.662;2023-05-23T03:07:41;100782.16;;;20.37;53.10
11648;BME280;5880;52.342;9.662;2023-05-23T03:10:08;100773.56;;;20.38;53.32
11648;BME280;5880;52.342;9.662;2023-05-23T03:12:34;100788.22;;;20.44;53.37
11648;BME280;5880;52.342;9.662;2023-05-23T03:15:01;100776.25;;;20.43;53.60
11648;BME280;5880;52.342;9.662;2023-05-23T03:17:27;100766.84;;;20.44;53.25
11648;BME280;5880;52.342;9.662;2023-05-23T03:19:52;100779.00;;;20.49;53.20
11648;BME280;5880;52.342;9.662;2023-05-23T03:22:18;100774.81;;;20.51;53.34
11648;BME280;5880;52.342;9.662;2023-05-23T03:24:44;100783.66;;;20.53;53.36
11648;BME280;5880;52.342;9.662;2023-05-23T03:27:09;100776.16;;;20.54;53.21
11648;BME280;5880;52.342;9.662;2023-05-23T03:29:35;100767.59;;;20.50;53.53
11648;BME280;5880;52.342;9.662;2023-05-23T03:32:01;100766.16;;;20.53;53.58
11648;BME280;5880;52.342;9.662;2023-05-23T03:34:26;100754.31;;;20.47;53.47
11648;BME280;5880;52.342;9.662;2023-05-23T03:36:52;100760.94;;;20.51;53.72
11648;BME280;5880;52.342;9.662;2023-05-23T03:39:18;100773.41;;;20.54;53.77
11648;BME280;5880;52.342;9.662;2023-05-23T03:41:43;100760.63;;;20.53;53.78
11648;BME280;5880;52.342;9.662;2023-05-23T03:44:09;100761.16;;;20.55;53.40
11648;BME280;5880;52.342;9.662;2023-05-23T03:46:35;100763.41;;;20.53;53.69
11648;BME280;5880;52.342;9.662;2023-05-23T03:49:00;100763.47;;;20.48;53.68
11648;BME280;5880;52.342;9.662;2023-05-23T03:51:26;100762.84;;;20.51;53.55
11648;BME280;5880;52.342;9.662;2023-05-23T03:53:52;100754.59;;;20.45;53.48
11648;BME280;5880;52.342;9.662;2023-05-23T03:56:18;100761.81;;;20.47;53.70
11648;BME280;5880;52.342;9.662;2023-05-23T03:58:44;100765.13;;;20.49;53.71
11648;BME280;5880;52.342;9.662;2023-05-23T04:01:10;100764.81;;;20.50;53.71
11648;BME280;5880;52.342;9.662;2023-05-23T04:03:35;100754.84;;;20.49;53.66
11648;BME280;5880;52.342;9.662;2023-05-23T04:06:01;100761.44;;;20.53;53.77
11648;BME280;5880;52.342;9.662;2023-05-23T04:08:27;100754.84;;;20.49;53.68
11648;BME280;5880;52.342;9.662;2023-05-23T04:10:53;100747.63;;;20.48;53.60
11648;BME280;5880;52.342;9.662;2023-05-23T04:13:19;100765.06;;;20.54;53.89
11648;BME280;5880;52.342;9.662;2023-05-23T04:15:46;100766.50;;;20.51;53.82
11648;BME280;5880;52.342;9.662;2023-05-23T04:18:12;100779.22;;;20.52;53.72
11648;BME280;5880;52.342;9.662;2023-05-23T04:20:40;100764.53;;;20.52;53.91
11648;BME280;5880;52.342;9.662;2023-05-23T04:23:06;100784.50;;;20.54;53.61
11648;BME280;5880;52.342;9.662;2023-05-23T04:25:31;100784.78;;;20.52;53.68
11648;BME280;5880;52.342;9.662;2023-05-23T04:27:59;100777.00;;;20.54;53.78
11648;BME280;5880;52.342;9.662;2023-05-23T04:30:25;100778.09;;;20.53;53.94
11648;BME280;5880;52.342;9.662;2023-05-23T04:32:51;100775.63;;;20.52;53.62
11648;BME280;5880;52.342;9.662;2023-05-23T04:35:18;100777.88;;;20.50;53.74
11648;BME280;5880;52.342;9.662;2023-05-23T04:37:43;100780.59;;;20.55;53.71
11648;BME280;5880;52.342;9.662;2023-05-23T04:40:10;100776.44;;;20.52;53.95
11648;BME280;5880;52.342;9.662;2023-05-23T04:42:37;100782.00;;;20.52;53.73
11648;BME280;5880;52.342;9.662;2023-05-23T04:45:07;100775.38;;;20.48;53.97
11648;BME280;5880;52.342;9.662;2023-05-23T04:47:33;100781.19;;;20.52;54.11
11648;BME280;5880;52.342;9.662;2023-05-23T04:49:59;100787.84;;;20.51;53.88
11648;BME280;5880;52.342;9.662;2023-05-23T04:52:26;100776.50;;;20.47;54.00
11648;BME280;5880;52.342;9.662;2023-05-23T04:54:54;100787.84;;;20.51;54.04
11648;BME280;5880;52.342;9.662;2023-05-23T04:57:20;100783.50;;;20.44;53.89
11648;BME280;5880;52.342;9.662;2023-05-23T04:59:46;100775.44;;;20.43;54.20
11648;BME280;5880;52.342;9.662;2023-05-23T05:02:12;100775.16;;;20.44;54.21
11648;BME280;5880;52.342;9.662;2023-05-23T05:04:37;100772.66;;;20.43;53.96
11648;BME280;5880;52.342;9.662;2023-05-23T05:07:03;100784.91;;;20.42;53.92
11648;BME280;5880;52.342;9.662;2023-05-23T05:09:29;100774.16;;;20.35;53.98
11648;BME280;5880;52.342;9.662;2023-05-23T05:11:57;100782.16;;;20.37;54.23
11648;BME280;5880;52.342;9.662;2023-05-23T05:14:24;100782.16;;;20.37;54.20
11648;BME280;5880;52.342;9.662;2023-05-23T05:16:51;100780.00;;;20.34;54.28
11648;BME280;5880;52.342;9.662;2023-05-23T05:19:16;100785.53;;;20.34;54.38
11648;BME280;5880;52.342;9.662;2023-05-23T05:21:42;100791.91;;;20.34;54.46
11648;BME280;5880;52.342;9.662;2023-05-23T05:24:08;100787.25;;;20.30;54.34
11648;BME280;5880;52.342;9.662;2023-05-23T05:26:37;100780.59;;;20.31;54.48
11648;BME280;5880;52.342;9.662;2023-05-23T05:29:03;100786.94;;;20.31;54.29
11648;BME280;5880;52.342;9.662;2023-05-23T05:31:28;100781.69;;;20.30;54.42
11648;BME280;5880;52.342;9.662;2023-05-23T05:33:54;100776.19;;;20.24;54.33
11648;BME280;5880;52.342;9.662;2023-05-23T05:36:20;100781.22;;;20.22;54.30
11648;BME280;5880;52.342;9.662;2023-05-23T05:38:46;100782.06;;;20.23;54.37
11648;BME280;5880;52.342;9.662;2023-05-23T05:41:12;100782.63;;;20.20;54.49
11648;BME280;5880;52.342;9.662;2023-05-23T05:43:38;100789.31;;;20.19;54.64
11648;BME280;5880;52.342;9.662;2023-05-23T05:46:04;100792.69;;;20.16;54.67
11648;BME280;5880;52.342;9.662;2023-05-23T05:48:29;100786.88;;;20.12;54.77
11648;BME280;5880;52.342;9.662;2023-05-23T05:50:55;100778.00;;;20.10;54.83
11648;BME280;5880;52.342;9.662;2023-05-23T05:53:21;100780.50;;;20.12;54.84
11648;BME280;5880;52.342;9.662;2023-05-23T05:55:46;100789.38;;;20.14;54.72
11648;BME280;5880;52.342;9.662;2023-05-23T05:58:12;100789.38;;;20.14;54.58
11648;BME280;5880;52.342;9.662;2023-05-23T06:00:38;100780.78;;;20.10;54.83
11648;BME280;5880;52.342;9.662;2023-05-23T06:03:07;100789.94;;;20.11;54.61
11648;BME280;5880;52.342;9.662;2023-05-23T06:05:33;100782.53;;;20.01;54.71
11648;BME280;5880;52.342;9.662;2023-05-23T06:07:59;100798.56;;;20.09;54.71
11648;BME280;5880;52.342;9.662;2023-05-23T06:10:25;100785.63;;;19.99;55.00
11648;BME280;5880;52.342;9.662;2023-05-23T06:12:50;100801.91;;;20.06;54.78
11648;BME280;5880;52.342;9.662;2023-05-23T06:15:16;100798.59;;;20.04;54.94
11648;BME280;5880;52.342;9.662;2023-05-23T06:17:42;100792.53;;;20.02;54.97
11648;BME280;5880;52.342;9.662;2023-05-23T06:20:10;100798.31;;;20.06;55.15
11648;BME280;5880;52.342;9.662;2023-05-23T06:22:36;100793.56;;;20.06;55.24
11648;BME280;5880;52.342;9.662;2023-05-23T06:25:02;100796.06;;;20.08;55.24
11648;BME280;5880;52.342;9.662;2023-05-23T06:27:28;100797.72;;;20.09;55.54
11648;BME280;5880;52.342;9.662;2023-05-23T06:29:53;100791.13;;;20.05;55.13
11648;BME280;5880;52.342;9.662;2023-05-23T06:32:19;100790.84;;;20.01;55.21
11648;BME280;5880;52.342;9.662;2023-05-23T06:34:45;100795.88;;;19.99;55.49
11648;BME280;5880;52.342;9.662;2023-05-23T06:37:10;100793.88;;;20.05;55.52
11648;BME280;5880;52.342;9.662;2023-05-23T06:39:36;100798.06;;;20.02;55.61
11648;BME280;5880;52.342;9.662;2023-05-23T06:42:01;100810.00;;;20.02;55.63
11648;BME280;5880;52.342;9.662;2023-05-23T06:44:28;100815.00;;;20.00;55.37
11648;BME280;5880;52.342;9.662;2023-05-23T06:46:55;100808.69;;;19.95;55.68
11648;BME280;5880;52.342;9.662;2023-05-23T06:49:23;100825.84;;;19.97;55.42
11648;BME280;5880;52.342;9.662;2023-05-23T06:51:50;100828.09;;;19.95;55.77
11648;BME280;5880;52.342;9.662;2023-05-23T06:54:16;100835.88;;;19.93;55.55
11648;BME280;5880;52.342;9.662;2023-05-23T06:56:42;100839.22;;;19.90;55.58
11648;BME280;5880;52.342;9.662;2023-05-23T06:59:08;100825.97;;;19.81;55.79
11648;BME280;5880;52.342;9.662;2023-05-23T07:01:33;100835.41;;;19.80;55.53
11648;BME280;5880;52.342;9.662;2023-05-23T07:03:59;100834.31;;;19.81;55.74
11648;BME280;5880;52.342;9.662;2023-05-23T07:06:25;100831.56;;;19.76;55.65
11648;BME280;5880;52.342;9.662;2023-05-23T07:08:53;100847.94;;;19.73;55.75
11648;BME280;5880;52.342;9.662;2023-05-23T07:11:22;100849.34;;;19.70;55.89
11648;BME280;5880;52.342;9.662;2023-05-23T07:13:48;100842.69;;;19.66;55.87
11648;BME280;5880;52.342;9.662;2023-05-23T07:16:13;100839.09;;;19.66;55.91
11648;BME280;5880;52.342;9.662;2023-05-23T07:18:39;100847.41;;;19.66;55.87
11648;BME280;5880;52.342;9.662;2023-05-23T07:21:05;100844.63;;;19.66;55.80
11648;BME280;5880;52.342;9.662;2023-05-23T07:23:33;100849.09;;;19.67;55.99
11648;BME280;5880;52.342;9.662;2023-05-23T07:26:00;100848.53;;;19.65;55.80
11648;BME280;5880;52.342;9.662;2023-05-23T07:28:27;100855.44;;;19.67;55.81
11648;BME280;5880;52.342;9.662;2023-05-23T07:30:53;100856.84;;;19.65;55.99
11648;BME280;5880;52.342;9.662;2023-05-23T07:33:19;100861.03;;;19.62;55.94
11648;BME280;5880;52.342;9.662;2023-05-23T07:35:45;100867.94;;;19.59;56.09
11648;BME280;5880;52.342;9.662;2023-05-23T07:38:10;100879.34;;;19.58;55.99
11648;BME280;5880;52.342;9.662;2023-05-23T07:40:36;100869.16;;;19.48;55.91
11648;BME280;5880;52.342;9.662;2023-05-23T07:43:03;100878.28;;;19.49;55.85
11648;BME280;5880;52.342;9.662;2023-05-23T07:45:29;100874.44;;;19.45;55.92
11648;BME280;5880;52.342;9.662;2023-05-23T07:47:54;100877.22;;;19.39;55.79
11648;BME280;5880;52.342;9.662;2023-05-23T07:50:20;100876.97;;;19.36;55.80
11648;BME280;5880;52.342;9.662;2023-05-23T07:52:46;100885.56;;;19.34;55.91
11648;BME280;5880;52.342;9.662;2023-05-23T07:55:11;100888.34;;;19.34;56.02
11648;BME280;5880;52.342;9.662;2023-05-23T07:57:37;100886.72;;;19.28;55.97
11648;BME280;5880;52.342;9.662;2023-05-23T08:00:03;100892.25;;;19.28;56.00
11648;BME280;5880;52.342;9.662;2023-05-23T08:02:32;100894.19;;;19.28;56.10
11648;BME280;5880;52.342;9.662;2023-05-23T08:04:57;100897.53;;;19.25;55.87
11648;BME280;5880;52.342;9.662;2023-05-23T08:07:24;100902.81;;;19.21;55.97
11648;BME280;5880;52.342;9.662;2023-05-23T08:09:49;100904.78;;;19.15;56.09
11648;BME280;5880;52.342;9.662;2023-05-23T08:12:15;100917.50;;;19.16;56.02
11648;BME280;5880;52.342;9.662;2023-05-23T08:14:41;100917.78;;;19.15;55.99
11648;BME280;5880;52.342;9.662;2023-05-23T08:17:06;100902.84;;;19.06;56.16
11648;BME280;5880;52.342;9.662;2023-05-23T08:19:32;100923.66;;;19.08;56.32
11648;BME280;5880;52.342;9.662;2023-05-23T08:21:58;100922.78;;;19.08;56.09
11648;BME280;5880;52.342;9.662;2023-05-23T08:24:23;100933.06;;;19.02;56.18
11648;BME280;5880;52.342;9.662;2023-05-23T08:26:49;100929.19;;;19.03;56.21
11648;BME280;5880;52.342;9.662;2023-05-23T08:29:15;100932.53;;;19.00;56.12
11648;BME280;5880;52.342;9.662;2023-05-23T08:31:40;100938.34;;;18.98;56.13
11648;BME280;5880;52.342;9.662;2023-05-23T08:34:06;100938.63;;;18.97;56.13
11648;BME280;5880;52.342;9.662;2023-05-23T08:36:32;100945.28;;;18.96;56.21
11648;BME280;5880;52.342;9.662;2023-05-23T08:39:01;100939.19;;;18.89;56.08
11648;BME280;5880;52.342;9.662;2023-05-23T08:41:29;100937.53;;;18.88;56.19
11648;BME280;5880;52.342;9.662;2023-05-23T08:43:56;100954.44;;;18.86;56.21
11648;BME280;5880;52.342;9.662;2023-05-23T08:46:22;100945.56;;;18.84;56.29
11648;BME280;5880;52.342;9.662;2023-05-23T08:48:53;100960.28;;;18.85;56.24
11648;BME280;5880;52.342;9.662;2023-05-23T08:51:26;100957.47;;;18.80;56.14
11648;BME280;5880;52.342;9.662;2023-05-23T08:53:53;100962.75;;;18.81;56.32
11648;BME280;5880;52.342;9.662;2023-05-23T08:56:22;100971.34;;;18.80;56.28
11648;BME280;5880;52.342;9.662;2023-05-23T08:58:50;100976.03;;;18.79;56.16
11648;BME280;5880;52.342;9.662;2023-05-23T09:01:18;100980.19;;;18.76;56.27
11648;BME280;5880;52.342;9.662;2023-05-23T09:03:45;100984.31;;;18.74;56.22
11648;BME280;5880;52.342;9.662;2023-05-23T09:06:12;100989.88;;;18.74;56.17
11648;BME280;5880;52.342;9.662;2023-05-23T09:08:38;100992.91;;;18.67;56.26
11648;BME280;5880;52.342;9.662;2023-05-23T09:11:05;101001.50;;;18.66;56.15
11648;BME280;5880;52.342;9.662;2023-05-23T09:13:32;101011.72;;;18.65;56.53
11648;BME280;5880;52.342;9.662;2023-05-23T09:21:01;101028.09;;;18.62;56.38
11648;BME280;5880;52.342;9.662;2023-05-23T09:23:38;101038.84;;;18.63;56.13
11648;BME280;5880;52.342;9.662;2023-05-23T09:26:09;101030.56;;;18.63;56.14
11648;BME280;5880;52.342;9.662;2023-05-23T09:28:37;101041.63;;;18.63;56.22
11648;BME280;5880;52.342;9.662;2023-05-23T09:31:06;101037.47;;;18.61;56.16
11648;BME280;5880;52.342;9.662;2023-05-23T09:33:44;101038.59;;;18.65;55.91
11648;BME280;5880;52.342;9.662;2023-05-23T09:36:12;101047.16;;;18.63;56.02
11648;BME280;5880;52.342;9.662;2023-05-23T09:38:40;101046.59;;;18.61;55.93
11648;BME280;5880;52.342;9.662;2023-05-23T09:41:06;101051.31;;;18.61;55.99
11648;BME280;5880;52.342;9.662;2023-05-23T09:43:33;101058.78;;;18.60;55.90
11648;BME280;5880;52.342;9.662;2023-05-23T09:46:11;101057.69;;;18.61;55.71
11648;BME280;5880;52.342;9.662;2023-05-23T09:48:37;101061.84;;;18.59;55.78
11648;BME280;5880;52.342;9.662;2023-05-23T09:51:05;101077.63;;;18.58;55.83
11648;BME280;5880;52.342;9.662;2023-05-23T09:53:31;101068.75;;;18.56;55.65
11648;BME280;5880;52.342;9.662;2023-05-23T09:55:58;101081.22;;;18.53;55.66
11648;BME280;5880;52.342;9.662;2023-05-23T09:58:27;101084.53;;;18.50;55.70
11648;BME280;5880;52.342;9.662;2023-05-23T10:00:56;101085.34;;;18.46;55.56
11648;BME280;5880;52.342;9.662;2023-05-23T10:03:50;101097.25;;;18.41;55.58
11648;BME280;5880;52.342;9.662;2023-05-23T10:06:38;101089.19;;;18.34;55.65
11648;BME280;5880;52.342;9.662;2023-05-23T10:09:12;101091.13;;;18.34;55.78
11648;BME280;5880;52.342;9.662;2023-05-23T10:14:28;101089.19;;;18.29;55.82
11648;BME280;5880;52.342;9.662;2023-05-23T10:17:07;101099.44;;;18.34;55.82
11648;BME280;5880;52.342;9.662;2023-05-23T10:19:59;101107.75;;;18.34;55.90
11648;BME280;5880;52.342;9.662;2023-05-23T10:22:27;101107.47;;;18.35;55.95
11648;BME280;5880;52.342;9.662;2023-05-23T10:24:53;101103.03;;;18.34;55.91
11648;BME280;5880;52.342;9.662;2023-05-23T10:27:19;101114.41;;;18.38;55.87
11648;BME280;5880;52.342;9.662;2023-05-23T10:29:45;101113.84;;;18.36;55.94
11648;BME280;5880;52.342;9.662;2023-05-23T10:32:12;101128.19;;;18.33;55.75
11648;BME280;5880;52.342;9.662;2023-05-23T10:34:58;101132.91;;;18.32;55.59
11648;BME280;5880;52.342;9.662;2023-05-23T10:44:01;101141.44;;;18.21;55.61
11648;BME280;5880;52.342;9.662;2023-05-23T10:46:54;101149.47;;;18.17;55.69
11648;BME280;5880;52.342;9.662;2023-05-23T10:49:43;101145.56;;;18.13;55.70
11648;BME280;5880;52.342;9.662;2023-05-23T10:52:12;101161.59;;;18.11;55.78
11648;BME280;5880;52.342;9.662;2023-05-23T10:54:49;101153.31;;;18.11;55.70
11648;BME280;5880;52.342;9.662;2023-05-23T10:57:19;101161.88;;;18.09;55.80
11648;BME280;5880;52.342;9.662;2023-05-23T10:59:47;101162.41;;;18.06;55.79
11648;BME280;5880;52.342;9.662;2023-05-23T11:02:18;101161.28;;;18.07;55.73
11648;BME280;5880;52.342;9.662;2023-05-23T11:04:44;101159.66;;;18.06;55.75
11648;BME280;5880;52.342;9.662;2023-05-23T11:07:30;101167.69;;;18.08;55.62
11648;BME280;5880;52.342;9.662;2023-05-23T11:10:10;101165.19;;;18.06;55.74
11648;BME280;5880;52.342;9.662;2023-05-23T11:12:43;101175.97;;;18.08;55.66
11648;BME280;5880;52.342;9.662;2023-05-23T11:15:19;101177.63;;;18.09;55.75
11648;BME280;5880;52.342;9.662;2023-05-23T11:17:55;101185.94;;;18.14;55.76
11648;BME280;5880;52.342;9.662;2023-05-23T11:20:23;101185.69;;;18.16;55.65
11648;BME280;5880;52.342;9.662;2023-05-23T11:23:01;101189.84;;;18.18;55.62
11648;BME280;5880;52.342;9.662;2023-05-23T11:25:52;101186.25;;;18.18;55.55
11648;BME280;5880;52.342;9.662;2023-05-23T11:28:18;101199.25;;;18.17;55.50
11648;BME280;5880;52.342;9.662;2023-05-23T11:30:47;101200.63;;;18.14;55.54
11648;BME280;5880;52.342;9.662;2023-05-23T11:33:15;101195.66;;;18.17;55.63
11648;BME280;5880;52.342;9.662;2023-05-23T11:35:46;101205.06;;;18.21;55.58
11648;BME280;5880;52.342;9.662;2023-05-23T11:38:17;101198.47;;;18.22;55.84
11648;BME280;5880;52.342;9.662;2023-05-23T11:40:45;101200.69;;;18.25;55.92
11648;BME280;5880;52.342;9.662;2023-05-23T11:43:17;101193.19;;;18.25;55.72
11648;BME280;5880;52.342;9.662;2023-05-23T11:45:44;101205.69;;;18.33;55.67
11648;BME280;5880;52.342;9.662;2023-05-23T11:48:16;101205.97;;;18.37;55.56
11648;BME280;5880;52.342;9.662;2023-05-23T11:50:51;101202.38;;;18.31;55.38
11648;BME280;5880;52.342;9.662;2023-05-23T11:53:19;101219.81;;;18.37;55.33
11648;BME280;5880;52.342;9.662;2023-05-23T11:55:56;101217.06;;;18.37;55.25
11648;BME280;5880;52.342;9.662;2023-05-23T11:58:34;101222.28;;;18.33;55.03
11648;BME280;5880;52.342;9.662;2023-05-23T12:01:02;101213.13;;;18.27;55.41
11648;BME280;5880;52.342;9.662;2023-05-23T12:03:29;101211.75;;;18.30;55.68
11648;BME280;5880;52.342;9.662;2023-05-23T12:05:56;101198.75;;;18.30;56.01
11648;BME280;5880;52.342;9.662;2023-05-23T12:08:22;101212.13;;;18.49;56.10
11648;BME280;5880;52.342;9.662;2023-05-23T12:10:58;101220.47;;;18.59;56.02
11648;BME280;5880;52.342;9.662;2023-05-23T12:13:27;101214.94;;;18.64;55.77
11648;BME280;5880;52.342;9.662;2023-05-23T12:15:59;101221.63;;;18.73;55.88
11648;BME280;5880;52.342;9.662;2023-05-23T12:18:30;101218.31;;;18.76;55.71
11648;BME280;5880;52.342;9.662;2023-05-23T12:21:04;101223.88;;;18.87;55.74
11648;BME280;5880;52.342;9.662;2023-05-23T12:23:32;101230.56;;;18.96;55.71
11648;BME280;5880;52.342;9.662;2023-05-23T12:25:58;101215.31;;;18.98;55.39
11648;BME280;5880;52.342;9.662;2023-05-23T12:28:39;101230.84;;;19.10;54.91
11648;BME280;5880;52.342;9.662;2023-05-23T12:31:18;101231.69;;;19.10;54.81
11648;BME280;5880;52.342;9.662;2023-05-23T12:33:46;101234.19;;;19.12;54.83
11648;BME280;5880;52.342;9.662;2023-05-23T12:36:22;101229.47;;;19.07;54.58
11648;BME280;5880;52.342;9.662;2023-05-23T12:38:48;101227.81;;;19.06;54.39
11648;BME280;5880;52.342;9.662;2023-05-23T12:41:18;101232.81;;;19.14;54.42
11648;BME280;5880;52.342;9.662;2023-05-23T12:43:50;101237.50;;;19.19;54.66
11648;BME280;5880;52.342;9.662;2023-05-23T12:46:17;101232.53;;;19.21;54.46
11648;BME280;5880;52.342;9.662;2023-05-23T12:48:43;101225.88;;;19.22;54.68
11648;BME280;5880;52.342;9.662;2023-05-23T12:51:09;101235.31;;;19.26;54.64
11648;BME280;5880;52.342;9.662;2023-05-23T12:53:35;101238.94;;;19.32;54.54
11648;BME280;5880;52.342;9.662;2023-05-23T12:56:01;101241.41;;;19.38;54.29
11648;BME280;5880;52.342;9.662;2023-05-23T12:58:26;101236.72;;;19.44;54.23
11648;BME280;5880;52.342;9.662;2023-05-23T13:00:52;101230.59;;;19.47;54.16
11648;BME280;5880;52.342;9.662;2023-05-23T13:03:18;101230.91;;;19.51;54.10
11648;BME280;5880;52.342;9.662;2023-05-23T13:05:44;101234.22;;;19.58;53.77
11648;BME280;5880;52.342;9.662;2023-05-23T13:08:09;101241.97;;;19.61;53.56
11648;BME280;5880;52.342;9.662;2023-05-23T13:10:37;101225.59;;;19.59;53.85
11648;BME280;5880;52.342;9.662;2023-05-23T13:13:03;101237.81;;;19.64;53.53
11648;BME280;5880;52.342;9.662;2023-05-23T13:15:29;101247.25;;;19.68;53.46
11648;BME280;5880;52.342;9.662;2023-05-23T13:17:54;101236.72;;;19.70;53.44
11648;BME280;5880;52.342;9.662;2023-05-23T13:20:21;101239.50;;;19.70;53.24
11648;BME280;5880;52.342;9.662;2023-05-23T13:22:47;101243.41;;;19.74;52.99
11648;BME280;5880;52.342;9.662;2023-05-23T13:25:13;101253.38;;;19.75;52.88